createdAt,value
2023-02-27T00:02:18.699Z,102832.28
2023-02-27T00:07:15.145Z,102823.50
2023-02-27T00:12:12.074Z,102828.78
2023-02-27T00:17:08.570Z,102834.88
2023-02-27T00:22:04.986Z,102836.63
2023-02-27T00:27:01.414Z,102840.06
2023-02-27T00:31:57.878Z,102842.69
2023-02-27T00:36:54.369Z,102837.38
2023-02-27T00:41:51.792Z,102831.25
2023-02-27T00:46:48.224Z,102838.22
2023-02-27T00:51:44.720Z,102844.34
2023-02-27T00:56:41.139Z,102835.56
2023-02-27T01:01:37.642Z,102832.88
2023-02-27T01:06:34.142Z,102844.28
2023-02-27T01:11:30.967Z,102832.06
2023-02-27T01:16:27.526Z,102835.53
2023-02-27T01:21:24.237Z,102820.66
2023-02-27T01:26:20.853Z,102822.41
2023-02-27T01:31:17.466Z,102823.25
2023-02-27T01:36:14.015Z,102824.16
2023-02-27T01:41:10.481Z,102810.97
2023-02-27T01:46:07.096Z,102822.34
2023-02-27T01:51:13.354Z,102820.63
2023-02-27T01:56:15.010Z,102820.56
2023-02-27T02:01:11.713Z,102818.81
2023-02-27T02:06:08.894Z,102831.00
2023-02-27T02:11:05.698Z,102833.63
2023-02-27T02:16:22.633Z,102823.06
2023-02-27T02:22:06.975Z,102824.81
2023-02-27T02:27:18.902Z,102832.69
2023-02-27T02:32:41.603Z,102842.28
2023-02-27T02:37:53.032Z,102841.41
2023-02-27T02:43:20.194Z,102839.66
2023-02-27T02:48:42.326Z,102841.38
2023-02-27T02:54:03.947Z,102839.59
2023-02-27T02:59:13.822Z,102831.78
2023-02-27T03:04:18.501Z,102849.25
2023-02-27T03:09:29.142Z,102845.78
2023-02-27T03:14:35.854Z,102840.50
2023-02-27T03:19:55.102Z,102843.13
2023-02-27T03:24:53.749Z,102845.78
2023-02-27T03:30:01.461Z,102844.00
2023-02-27T03:34:57.940Z,102844.00
2023-02-27T03:40:21.395Z,102853.59
2023-02-27T03:45:25.775Z,102852.72
2023-02-27T03:50:22.264Z,102856.22
2023-02-27T03:55:25.330Z,102859.69
2023-02-27T04:00:23.725Z,102871.06
2023-02-27T04:05:20.983Z,102865.72
2023-02-27T04:10:44.323Z,102882.34
2023-02-27T04:16:12.147Z,102888.44
2023-02-27T04:21:28.399Z,102882.28
2023-02-27T04:26:29.924Z,102886.56
2023-02-27T04:31:45.397Z,102909.28
2023-02-27T04:36:45.891Z,102910.13
2023-02-27T04:41:50.763Z,102911.88
2023-02-27T04:46:47.782Z,102916.25
2023-02-27T04:51:51.709Z,102915.34
2023-02-27T04:56:52.761Z,102914.47
2023-02-27T05:01:59.990Z,102910.97
2023-02-27T05:06:57.925Z,102921.41
2023-02-27T05:12:01.745Z,102924.03
2023-02-27T05:17:12.235Z,102924.94
2023-02-27T05:22:33.878Z,102932.75
2023-02-27T05:27:51.398Z,102930.97
2023-02-27T05:32:58.580Z,102931.84
2023-02-27T05:38:15.047Z,102936.25
2023-02-27T05:43:24.846Z,102930.13
2023-02-27T05:48:28.161Z,102929.22
2023-02-27T05:53:27.603Z,102936.19
2023-02-27T05:58:27.127Z,102920.50
2023-02-27T06:03:23.678Z,102928.38
2023-02-27T06:08:21.621Z,102930.97
2023-02-27T06:13:18.308Z,102944.91
2023-02-27T06:18:16.298Z,102959.75
2023-02-27T06:23:13.247Z,102963.22
2023-02-27T06:28:10.467Z,102964.13
2023-02-27T06:33:06.953Z,102976.38
2023-02-27T06:38:03.405Z,102982.44
2023-02-27T06:42:59.827Z,102988.56
2023-02-27T06:47:56.266Z,102986.84
2023-02-27T06:52:52.717Z,102985.94
2023-02-27T06:57:49.277Z,102989.41
2023-02-27T07:02:45.796Z,103000.72
2023-02-27T07:07:42.237Z,103007.75
2023-02-27T07:12:39.824Z,103002.53
2023-02-27T07:17:37.734Z,103008.69
2023-02-27T07:22:34.361Z,103013.94
2023-02-27T07:27:31.172Z,103020.09
2023-02-27T07:32:27.817Z,103006.16
2023-02-27T07:37:25.908Z,103014.06
2023-02-27T07:42:23.406Z,103008.03
2023-02-27T07:47:19.892Z,103007.28
2023-02-27T07:52:16.433Z,103010.06
2023-02-27T07:57:13.096Z,103017.13
2023-02-27T08:02:12.050Z,103025.94
2023-02-27T08:07:08.573Z,103014.66
2023-02-27T08:12:05.104Z,103020.03
2023-02-27T08:17:01.632Z,103007.84
2023-02-27T08:21:58.148Z,103012.25
2023-02-27T08:26:54.666Z,103014.13
2023-02-27T08:31:51.273Z,103008.91
2023-02-27T08:36:48.090Z,103023.84
2023-02-27T08:41:44.929Z,103023.88
2023-02-27T08:46:41.622Z,103033.53
2023-02-27T08:51:38.173Z,103033.59
2023-02-27T08:56:34.807Z,103035.44
2023-02-27T09:01:34.174Z,103045.94
2023-02-27T09:06:31.468Z,103051.25
2023-02-27T09:11:28.500Z,103042.50
2023-02-27T09:16:25.104Z,103043.44
2023-02-27T09:21:23.568Z,103052.19
2023-02-27T09:26:20.934Z,103046.09
2023-02-27T09:31:18.264Z,103055.72
2023-02-27T09:36:16.253Z,103058.38
2023-02-27T09:41:35.399Z,103056.66
2023-02-27T09:46:31.859Z,103056.66
2023-02-27T09:51:29.070Z,103040.91
2023-02-27T09:56:47.126Z,103049.66
2023-02-27T10:02:13.728Z,103033.00
2023-02-27T10:07:25.014Z,103028.59
2023-02-27T10:12:31.137Z,103031.19
2023-02-27T10:17:40.018Z,103026.75
2023-02-27T10:22:42.018Z,103040.72
2023-02-27T10:27:38.578Z,103035.38
2023-02-27T10:32:35.604Z,103041.44
2023-02-27T10:37:32.088Z,103053.63
2023-02-27T10:42:32.633Z,103062.34
2023-02-27T10:47:29.636Z,103063.19
2023-02-27T10:52:26.001Z,103066.59
2023-02-27T10:57:37.828Z,103055.97
2023-02-27T11:02:40.632Z,103066.41
2023-02-27T11:07:38.573Z,103070.72
2023-02-27T11:12:35.107Z,103074.22
2023-02-27T11:17:36.766Z,103070.63
2023-02-27T11:22:33.572Z,103066.19
2023-02-27T11:27:30.704Z,103071.31
2023-02-27T11:32:43.263Z,103079.16
2023-02-27T11:37:41.218Z,103074.66
2023-02-27T11:42:47.141Z,103079.00
2023-02-27T11:47:48.691Z,103076.38
2023-02-27T11:52:53.394Z,103077.28
2023-02-27T11:57:54.643Z,103073.69
2023-02-27T12:03:17.964Z,103070.97
2023-02-27T12:08:18.630Z,103063.84
2023-02-27T12:13:18.929Z,103062.06
2023-02-27T12:18:19.696Z,103043.66
2023-02-27T12:23:29.192Z,103049.84
2023-02-27T12:28:58.034Z,103048.13
2023-02-27T12:34:13.027Z,103056.88
2023-02-27T12:39:18.488Z,103048.13
2023-02-27T12:44:37.393Z,103043.72
2023-02-27T12:49:39.485Z,103040.25
2023-02-27T12:54:41.700Z,103034.97
2023-02-27T12:59:48.199Z,103032.34
2023-02-27T13:04:48.458Z,103027.03
2023-02-27T13:09:54.771Z,103029.66
2023-02-27T13:15:02.927Z,103029.63
2023-02-27T13:20:20.804Z,103028.72
2023-02-27T13:25:18.104Z,103028.69
2023-02-27T13:30:33.387Z,103032.19
2023-02-27T13:35:51.482Z,103020.75
2023-02-27T13:40:47.977Z,103025.13
2023-02-27T13:45:54.134Z,103013.72
2023-02-27T13:50:51.925Z,103005.91
2023-02-27T13:56:01.003Z,103010.34
2023-02-27T14:00:59.842Z,103006.78
2023-02-27T14:05:58.570Z,103020.81
2023-02-27T14:11:09.803Z,103029.63
2023-02-27T14:16:07.484Z,103030.50
2023-02-27T14:21:04.818Z,103035.63
2023-02-27T14:26:20.356Z,103040.78
2023-02-27T14:31:30.224Z,103052.09
2023-02-27T14:36:29.788Z,103054.66
2023-02-27T14:41:49.563Z,103054.56
2023-02-27T14:46:46.236Z,103051.00
2023-02-27T14:51:46.037Z,103058.97
2023-02-27T14:57:01.158Z,103061.50
2023-02-27T15:02:05.939Z,103036.22
2023-02-27T15:07:35.344Z,103060.78
2023-02-27T15:12:45.486Z,103042.34
2023-02-27T15:18:01.112Z,103045.94
2023-02-27T15:23:43.664Z,103055.50
2023-02-27T15:28:52.861Z,103059.84
2023-02-27T15:34:27.771Z,103059.06
2023-02-27T15:40:00.829Z,103052.13
2023-02-27T15:45:24.240Z,103033.84
2023-02-27T15:50:38.568Z,103069.72
2023-02-27T15:55:52.285Z,103056.59
2023-02-27T16:01:04.402Z,103047.00
2023-02-27T16:12:52.546Z,103068.16
2023-02-27T16:23:47.091Z,103081.59
2023-02-27T16:29:04.838Z,103071.06
2023-02-27T16:34:44.264Z,103079.00
2023-02-27T16:39:41.510Z,103049.31
2023-02-27T16:44:57.968Z,103061.59
2023-02-27T16:49:56.556Z,103057.25
2023-02-27T16:55:02.507Z,103052.06
2023-02-27T17:00:34.129Z,103076.59
2023-02-27T17:05:41.155Z,103031.94
2023-02-27T17:10:54.194Z,103036.28
2023-02-27T17:15:59.061Z,103031.81
2023-02-27T17:21:01.555Z,103039.69
2023-02-27T17:25:58.357Z,103035.38
2023-02-27T17:31:02.933Z,103068.63
2023-02-27T17:36:24.288Z,103043.28
2023-02-27T17:41:39.321Z,103052.06
2023-02-27T17:52:00.475Z,103056.31
2023-02-27T17:57:14.884Z,103043.22
2023-02-27T18:02:27.692Z,103054.59
2023-02-27T18:07:26.387Z,103027.47
2023-02-27T18:12:29.028Z,103047.63
2023-02-27T18:17:45.720Z,103031.00
2023-02-27T18:22:49.584Z,103063.47
2023-02-27T18:27:52.396Z,103072.22
2023-02-27T18:33:03.541Z,103077.47
2023-02-27T18:38:07.972Z,103079.19
2023-02-27T18:43:28.074Z,103100.25
2023-02-27T18:48:27.434Z,103084.47
2023-02-27T18:53:45.879Z,103106.44
2023-02-27T18:58:52.432Z,103097.63
2023-02-27T19:04:03.639Z,103106.44
2023-02-27T19:09:12.991Z,103074.03
2023-02-27T19:14:18.290Z,103101.13
2023-02-27T19:19:28.576Z,103085.50
2023-02-27T19:24:41.164Z,103086.34
2023-02-27T19:29:37.953Z,103090.69
2023-02-27T19:34:39.685Z,103108.19
2023-02-27T19:39:39.696Z,103092.38
2023-02-27T19:44:44.983Z,103095.03
2023-02-27T19:49:46.252Z,103077.53
2023-02-27T19:54:46.352Z,103102.06
2023-02-27T19:59:45.287Z,103088.94
2023-02-27T20:05:00.516Z,103088.94
2023-02-27T20:10:02.180Z,103078.44
2023-02-27T20:15:18.560Z,103100.38
2023-02-27T20:20:23.543Z,103108.22
2023-02-27T20:25:29.496Z,103117.06
2023-02-27T20:30:46.550Z,103098.69
2023-02-27T20:35:48.703Z,103087.28
2023-02-27T20:41:04.109Z,103130.25
2023-02-27T20:46:23.887Z,103133.72
2023-02-27T20:52:04.487Z,103131.97
2023-02-27T20:57:12.964Z,103125.00
2023-02-27T21:02:13.155Z,103129.41
2023-02-27T21:07:27.417Z,103124.16
2023-02-27T21:13:00.569Z,103109.28
2023-02-27T21:23:28.546Z,103095.25
2023-02-27T21:28:47.708Z,103133.84
2023-02-27T21:34:09.226Z,103097.13
2023-02-27T21:39:23.287Z,103110.31
2023-02-27T21:44:32.853Z,103105.09
2023-02-27T21:49:34.549Z,103109.44
2023-02-27T21:54:42.588Z,103107.72
2023-02-27T21:59:45.790Z,103127.88
2023-02-27T22:10:07.525Z,103114.72
2023-02-27T22:15:14.358Z,103117.28
2023-02-27T22:20:15.720Z,103093.69
2023-02-27T22:25:21.018Z,103119.91
2023-02-27T22:30:32.042Z,103103.31
2023-02-27T22:35:39.753Z,103099.81
2023-02-27T22:40:43.236Z,103125.19
2023-02-27T22:45:51.667Z,103116.50
2023-02-27T22:50:57.316Z,103112.16
2023-02-27T22:55:58.199Z,103141.88
2023-02-27T23:01:03.497Z,103110.38
2023-02-27T23:06:04.909Z,103134.94
2023-02-27T23:16:19.796Z,103128.00
2023-02-27T23:21:29.497Z,103137.63
2023-02-27T23:26:42.325Z,103145.50
2023-02-27T23:31:39.349Z,103151.69
2023-02-27T23:36:47.007Z,103166.59
2023-02-27T23:42:04.660Z,103153.47
2023-02-27T23:47:06.274Z,103141.22
2023-02-27T23:52:06.726Z,103138.63
2023-02-27T23:57:14.721Z,103153.56
